createdAt,value
2022-09-18T00:00:40.890Z,53.67
2022-09-18T00:03:07.337Z,53.57
2022-09-18T00:05:35.509Z,53.77
2022-09-18T00:08:01.957Z,53.97
2022-09-18T00:10:28.749Z,53.56
2022-09-18T00:12:55.140Z,53.54
2022-09-18T00:15:21.565Z,53.52
2022-09-18T00:17:47.960Z,53.28
2022-09-18T00:20:14.412Z,53.24
2022-09-18T00:22:40.873Z,53.00
2022-09-18T00:25:07.524Z,52.62
2022-09-18T00:27:33.960Z,52.58
2022-09-18T00:30:00.346Z,52.48
2022-09-18T00:32:26.712Z,52.40
2022-09-18T00:34:53.131Z,51.79
2022-09-18T00:37:19.505Z,51.92
2022-09-18T00:39:45.902Z,52.14
2022-09-18T00:42:12.292Z,51.94
2022-09-18T00:44:38.724Z,52.14
2022-09-18T00:47:07.440Z,51.58
2022-09-18T00:49:33.857Z,51.10
2022-09-18T00:52:01.646Z,51.99
2022-09-18T00:54:29.362Z,52.15
2022-09-18T00:56:57.272Z,51.82
2022-09-18T00:59:24.627Z,51.88
2022-09-18T01:01:51.213Z,51.53
2022-09-18T01:04:17.624Z,51.13
2022-09-18T01:06:47.021Z,50.72
2022-09-18T01:09:32.286Z,50.79
2022-09-18T01:12:04.925Z,50.53
2022-09-18T01:14:46.627Z,50.97
2022-09-18T01:17:15.675Z,51.75
2022-09-18T01:20:01.286Z,51.41
2022-09-18T01:22:37.100Z,50.80
2022-09-18T01:25:03.420Z,50.71
2022-09-18T01:27:40.856Z,50.62
2022-09-18T01:30:07.853Z,50.26
2022-09-18T01:32:52.889Z,50.37
2022-09-18T01:35:40.706Z,50.50
2022-09-18T01:38:09.040Z,50.38
2022-09-18T01:40:36.731Z,50.09
2022-09-18T01:43:05.122Z,50.71
2022-09-18T01:45:35.829Z,50.33
2022-09-18T01:48:08.509Z,50.34
2022-09-18T01:50:36.194Z,50.06
2022-09-18T01:53:12.681Z,50.13
2022-09-18T01:55:39.091Z,50.15
2022-09-18T01:58:09.279Z,49.96
2022-09-18T02:03:29.704Z,49.82
2022-09-18T02:06:00.531Z,50.08
2022-09-18T02:08:31.887Z,50.36
2022-09-18T02:10:59.838Z,50.10
2022-09-18T02:13:27.351Z,49.59
2022-09-18T02:15:53.902Z,50.07
2022-09-18T02:18:24.730Z,50.21
2022-09-18T02:20:51.115Z,50.58
2022-09-18T02:23:17.491Z,49.80
2022-09-18T02:25:45.743Z,49.34
2022-09-18T02:28:12.453Z,49.50
2022-09-18T02:30:39.320Z,49.09
2022-09-18T02:33:22.132Z,49.00
2022-09-18T02:35:48.560Z,48.73
2022-09-18T02:38:22.028Z,49.19
2022-09-18T02:40:48.350Z,48.88
2022-09-18T02:43:14.739Z,49.52
2022-09-18T02:45:53.451Z,49.22
2022-09-18T02:48:19.794Z,48.81
2022-09-18T02:50:57.941Z,49.00
2022-09-18T02:53:25.692Z,48.92
2022-09-18T02:56:15.395Z,48.50
2022-09-18T02:58:47.918Z,49.22
2022-09-18T03:01:14.400Z,48.85
2022-09-18T03:03:40.990Z,49.24
2022-09-18T03:06:07.553Z,49.13
2022-09-18T03:08:34.041Z,49.12
2022-09-18T03:11:00.556Z,48.70
2022-09-18T03:13:27.033Z,49.62
2022-09-18T03:15:55.119Z,49.35
2022-09-18T03:18:21.925Z,48.83
2022-09-18T03:20:49.520Z,48.73
2022-09-18T03:23:16.559Z,48.81
2022-09-18T03:25:43.143Z,49.37
2022-09-18T03:28:09.564Z,48.91
2022-09-18T03:30:36.190Z,48.95
2022-09-18T03:33:02.674Z,49.09
2022-09-18T03:35:29.218Z,49.02
2022-09-18T03:37:56.119Z,48.86
2022-09-18T03:40:22.634Z,49.35
2022-09-18T03:42:49.147Z,48.85
2022-09-18T03:45:15.575Z,49.14
2022-09-18T03:47:42.061Z,48.86
2022-09-18T03:50:08.677Z,49.26
2022-09-18T03:52:35.081Z,49.21
2022-09-18T03:55:01.739Z,49.18
2022-09-18T03:57:28.154Z,49.20
2022-09-18T03:59:54.596Z,49.06
2022-09-18T04:02:21.079Z,49.29
2022-09-18T04:04:47.468Z,49.55
2022-09-18T04:07:13.874Z,49.40
2022-09-18T04:09:40.719Z,51.52
2022-09-18T04:12:07.256Z,50.23
2022-09-18T04:14:33.879Z,49.74
2022-09-18T04:17:00.528Z,49.29
2022-09-18T04:19:26.903Z,49.33
2022-09-18T04:21:53.300Z,49.89
2022-09-18T04:24:19.681Z,51.21
2022-09-18T04:26:47.076Z,49.67
2022-09-18T04:29:13.479Z,49.34
2022-09-18T04:31:39.989Z,49.65
2022-09-18T04:34:07.190Z,49.64
2022-09-18T04:36:33.588Z,49.58
2022-09-18T04:39:00.001Z,49.52
2022-09-18T04:41:26.502Z,49.56
2022-09-18T04:43:52.883Z,49.69
2022-09-18T04:46:19.314Z,49.70
2022-09-18T04:48:45.860Z,49.60
2022-09-18T04:51:12.265Z,49.26
2022-09-18T04:53:39.608Z,49.07
2022-09-18T04:56:06.073Z,49.57
2022-09-18T04:58:32.504Z,49.80
2022-09-18T05:00:58.917Z,49.14
2022-09-18T05:03:25.406Z,48.86
2022-09-18T05:05:51.817Z,47.98
2022-09-18T05:08:18.221Z,48.07
2022-09-18T05:10:44.602Z,47.78
2022-09-18T05:13:11.011Z,47.59
2022-09-18T05:15:37.639Z,47.37
2022-09-18T05:18:09.068Z,47.14
2022-09-18T05:20:37.630Z,46.89
2022-09-18T05:23:04.096Z,46.63
2022-09-18T05:25:31.080Z,46.64
2022-09-18T05:27:58.196Z,46.77
2022-09-18T05:30:24.642Z,46.77
2022-09-18T05:32:59.053Z,47.18
2022-09-18T05:35:26.135Z,47.27
2022-09-18T05:37:52.986Z,46.85
2022-09-18T05:40:20.025Z,47.23
2022-09-18T05:42:46.951Z,46.57
2022-09-18T05:45:14.081Z,46.63
2022-09-18T05:47:40.788Z,46.72
2022-09-18T05:50:07.668Z,45.34
2022-09-18T05:52:34.043Z,43.53
2022-09-18T05:55:02.861Z,41.83
2022-09-18T05:57:29.254Z,41.04
2022-09-18T05:59:55.740Z,39.70
2022-09-18T06:02:22.174Z,38.47
2022-09-18T06:04:48.707Z,36.72
2022-09-18T06:07:16.227Z,35.63
2022-09-18T06:09:42.665Z,34.33
2022-09-18T06:12:09.128Z,34.16
2022-09-18T06:14:35.512Z,34.32
2022-09-18T06:17:01.915Z,33.61
2022-09-18T06:19:28.576Z,33.08
2022-09-18T06:21:54.993Z,32.26
2022-09-18T06:24:21.409Z,33.06
2022-09-18T06:26:48.733Z,32.98
2022-09-18T06:29:15.168Z,32.67
2022-09-18T06:31:41.687Z,32.48
2022-09-18T06:34:08.131Z,30.94
2022-09-18T06:36:34.600Z,29.96
2022-09-18T06:39:01.061Z,29.57
2022-09-18T06:41:27.586Z,29.85
2022-09-18T06:43:54.050Z,29.21
2022-09-18T06:46:20.478Z,28.76
2022-09-18T06:48:48.576Z,29.26
2022-09-18T06:51:15.044Z,28.10
2022-09-18T06:53:41.436Z,28.40
2022-09-18T06:56:07.826Z,28.37
2022-09-18T06:58:34.228Z,28.47
2022-09-18T07:01:01.070Z,27.48
2022-09-18T07:03:27.551Z,25.80
2022-09-18T07:05:53.959Z,25.99
2022-09-18T07:08:21.527Z,26.47
2022-09-18T07:10:48.012Z,26.54
2022-09-18T07:13:14.388Z,26.15
2022-09-18T07:15:40.826Z,26.23
2022-09-18T07:18:08.127Z,26.40
2022-09-18T07:20:34.540Z,26.10
2022-09-18T07:23:01.381Z,25.96
2022-09-18T07:25:28.069Z,26.69
2022-09-18T07:27:54.459Z,28.09
2022-09-18T07:30:21.057Z,28.77
2022-09-18T07:32:47.719Z,29.83
2022-09-18T07:35:14.188Z,29.68
2022-09-18T07:37:40.659Z,30.50
2022-09-18T07:40:07.427Z,30.58
2022-09-18T07:42:33.937Z,30.86
2022-09-18T07:45:00.369Z,30.90
2022-09-18T07:47:27.948Z,30.16
2022-09-18T07:49:54.990Z,28.33
2022-09-18T07:52:21.438Z,27.88
2022-09-18T07:54:47.888Z,25.88
2022-09-18T07:57:14.340Z,26.21
2022-09-18T07:59:40.745Z,24.82
2022-09-18T08:02:07.254Z,25.08
2022-09-18T08:04:33.910Z,24.87
2022-09-18T08:07:03.908Z,23.82
2022-09-18T08:09:30.366Z,23.52
2022-09-18T08:11:56.863Z,23.48
2022-09-18T08:14:28.013Z,23.32
2022-09-18T08:16:55.402Z,23.67
2022-09-18T08:19:21.831Z,25.42
2022-09-18T08:21:48.240Z,26.13
2022-09-18T08:24:17.617Z,26.84
2022-09-18T08:26:44.258Z,29.48
2022-09-18T08:29:10.664Z,30.35
2022-09-18T08:31:37.132Z,31.64
2022-09-18T08:34:03.648Z,31.54
2022-09-18T08:36:30.064Z,32.29
2022-09-18T08:38:56.875Z,32.62
2022-09-18T08:41:30.310Z,32.64
2022-09-18T08:44:04.214Z,32.51
2022-09-18T08:46:51.511Z,33.50
2022-09-18T08:49:36.985Z,33.78
2022-09-18T08:52:05.121Z,34.44
2022-09-18T08:54:41.082Z,33.48
2022-09-18T08:57:15.341Z,33.17
2022-09-18T08:59:43.949Z,32.83
2022-09-18T09:02:13.741Z,32.93
2022-09-18T09:04:40.223Z,33.24
2022-09-18T09:07:15.819Z,33.25
2022-09-18T09:09:44.568Z,33.98
2022-09-18T09:12:14.119Z,33.82
2022-09-18T09:14:56.518Z,33.79
2022-09-18T09:17:42.611Z,34.12
2022-09-18T09:20:13.815Z,35.41
2022-09-18T09:22:47.457Z,34.72
2022-09-18T09:25:13.831Z,35.28
2022-09-18T09:27:43.772Z,35.12
2022-09-18T09:30:14.631Z,35.48
2022-09-18T09:32:45.230Z,34.53
2022-09-18T09:35:14.421Z,34.20
2022-09-18T09:37:43.712Z,34.90
2022-09-18T09:40:12.876Z,34.15
2022-09-18T09:42:44.127Z,34.69
2022-09-18T09:45:14.997Z,34.39
2022-09-18T09:47:41.537Z,34.57
2022-09-18T09:50:17.421Z,34.49
2022-09-18T09:52:44.005Z,34.88
2022-09-18T09:55:13.569Z,35.37
2022-09-18T09:57:52.601Z,34.52
2022-09-18T10:00:19.547Z,35.10
2022-09-18T10:03:04.753Z,35.02
2022-09-18T10:05:42.883Z,35.27
2022-09-18T10:08:10.884Z,35.37
2022-09-18T10:10:49.390Z,35.42
2022-09-18T10:13:20.855Z,35.87
2022-09-18T10:15:50.033Z,35.10
2022-09-18T10:18:21.861Z,34.96
2022-09-18T10:20:48.373Z,34.80
2022-09-18T10:23:25.433Z,34.83
2022-09-18T10:25:56.042Z,34.69
2022-09-18T10:28:25.603Z,34.88
2022-09-18T10:31:05.313Z,34.35
2022-09-18T10:33:31.696Z,33.62
2022-09-18T10:36:08.926Z,32.98
2022-09-18T10:38:37.821Z,31.89
2022-09-18T10:41:11.242Z,31.89
2022-09-18T10:43:40.234Z,31.09
2022-09-18T10:46:07.127Z,30.34
2022-09-18T10:48:33.512Z,29.22
2022-09-18T10:51:00.494Z,27.71
2022-09-18T10:53:33.363Z,27.15
2022-09-18T10:56:04.927Z,26.41
2022-09-18T10:58:31.771Z,26.77
2022-09-18T11:01:01.969Z,26.83
2022-09-18T11:03:41.758Z,27.13
2022-09-18T11:06:18.877Z,27.24
2022-09-18T11:08:46.619Z,27.46
2022-09-18T11:11:19.858Z,27.91
2022-09-18T11:13:55.636Z,27.53
2022-09-18T11:16:22.976Z,26.98
2022-09-18T11:19:02.032Z,25.97
2022-09-18T11:21:31.696Z,26.32
2022-09-18T11:24:04.714Z,24.58
2022-09-18T11:26:31.342Z,25.09
2022-09-18T11:28:58.893Z,25.50
2022-09-18T11:31:25.417Z,26.22
2022-09-18T11:33:53.495Z,27.14
2022-09-18T11:36:27.009Z,25.34
2022-09-18T11:38:53.432Z,25.64
2022-09-18T11:41:34.218Z,25.99
2022-09-18T11:44:01.884Z,26.34
2022-09-18T11:46:35.652Z,26.75
2022-09-18T11:49:04.806Z,26.96
2022-09-18T11:51:47.318Z,27.14
2022-09-18T11:54:18.313Z,27.32
2022-09-18T11:56:45.482Z,27.64
2022-09-18T11:59:14.839Z,27.71
2022-09-18T12:01:42.246Z,27.45
2022-09-18T12:04:27.637Z,27.33
2022-09-18T12:07:09.893Z,27.34
2022-09-18T12:09:55.228Z,27.44
2022-09-18T12:12:23.968Z,26.59
2022-09-18T12:14:59.426Z,25.74
2022-09-18T12:17:28.942Z,25.74
2022-09-18T12:19:57.021Z,25.73
2022-09-18T12:22:26.468Z,25.61
2022-09-18T12:24:55.222Z,25.14
2022-09-18T12:27:31.411Z,24.11
2022-09-18T12:30:00.849Z,23.86
2022-09-18T12:32:30.284Z,24.97
2022-09-18T12:35:10.585Z,23.28
2022-09-18T12:37:46.537Z,23.92
2022-09-18T12:40:19.935Z,24.07
2022-09-18T12:42:55.686Z,24.43
2022-09-18T12:45:40.996Z,24.93
2022-09-18T12:48:11.181Z,26.17
2022-09-18T12:50:45.673Z,24.33
2022-09-18T12:53:18.272Z,24.95
2022-09-18T12:55:47.499Z,25.68
2022-09-18T12:58:32.842Z,25.12
2022-09-18T13:01:00.564Z,24.90
2022-09-18T13:03:30.149Z,24.92
2022-09-18T13:06:13.627Z,24.58
2022-09-18T13:08:49.344Z,24.34
2022-09-18T13:11:27.904Z,24.65
2022-09-18T13:13:57.240Z,23.56
2022-09-18T13:16:39.228Z,23.91
2022-09-18T13:19:07.609Z,23.66
2022-09-18T13:21:35.915Z,22.46
2022-09-18T13:24:02.636Z,22.88
2022-09-18T13:26:29.674Z,22.43
2022-09-18T13:28:56.239Z,22.74
2022-09-18T13:31:24.250Z,22.92
2022-09-18T13:34:07.622Z,24.00
2022-09-18T13:36:35.181Z,24.08
2022-09-18T13:39:18.401Z,24.47
2022-09-18T13:41:45.651Z,24.38
2022-09-18T13:44:31.531Z,25.00
2022-09-18T13:47:19.258Z,25.46
2022-09-18T13:49:49.650Z,25.80
2022-09-18T13:52:31.682Z,27.26
2022-09-18T13:55:01.920Z,27.71
2022-09-18T13:57:31.623Z,29.16
2022-09-18T13:59:59.181Z,29.59
2022-09-18T14:02:35.690Z,31.36
2022-09-18T14:05:05.928Z,31.46
2022-09-18T14:07:32.360Z,32.19
2022-09-18T14:10:03.651Z,31.86
2022-09-18T14:12:32.020Z,31.74
2022-09-18T14:15:01.800Z,31.65
2022-09-18T14:17:28.724Z,32.12
2022-09-18T14:20:09.219Z,32.02
2022-09-18T14:22:38.231Z,32.45
2022-09-18T14:25:07.219Z,31.92
2022-09-18T14:27:35.260Z,32.16
2022-09-18T14:30:14.699Z,32.23
2022-09-18T14:32:42.224Z,31.69
2022-09-18T14:35:29.044Z,32.74
2022-09-18T14:37:55.580Z,31.69
2022-09-18T14:40:22.891Z,32.02
2022-09-18T14:42:49.435Z,32.35
2022-09-18T14:45:20.717Z,33.01
2022-09-18T14:47:47.518Z,34.22
2022-09-18T14:50:37.527Z,34.43
2022-09-18T14:53:24.524Z,34.60
2022-09-18T14:55:52.271Z,35.50
2022-09-18T14:58:19.878Z,36.28
2022-09-18T15:00:46.357Z,36.54
2022-09-18T15:03:23.619Z,37.41
2022-09-18T15:05:51.913Z,37.37
2022-09-18T15:08:21.636Z,37.49
2022-09-18T15:10:51.088Z,37.83
2022-09-18T15:13:17.548Z,37.95
2022-09-18T15:15:47.292Z,38.25
2022-09-18T15:18:20.592Z,38.35
2022-09-18T15:20:49.409Z,38.60
2022-09-18T15:23:28.203Z,39.20
2022-09-18T15:25:55.523Z,38.75
2022-09-18T15:28:21.950Z,38.39
2022-09-18T15:30:49.916Z,38.30
2022-09-18T15:33:19.217Z,38.10
2022-09-18T15:35:46.993Z,37.61
2022-09-18T15:38:16.969Z,37.74
2022-09-18T15:40:43.738Z,37.75
2022-09-18T15:43:29.079Z,38.07
2022-09-18T15:46:02.569Z,38.28
2022-09-18T15:48:33.839Z,38.35
2022-09-18T15:51:12.816Z,38.50
2022-09-18T15:53:39.734Z,38.53
2022-09-18T15:56:09.815Z,38.51
2022-09-18T15:58:37.947Z,38.43
2022-09-18T16:01:05.003Z,38.22
2022-09-18T16:03:31.610Z,38.23
2022-09-18T16:06:02.638Z,38.31
2022-09-18T16:08:30.118Z,38.50
2022-09-18T16:10:56.883Z,38.49
2022-09-18T16:13:26.237Z,38.40
2022-09-18T16:16:14.493Z,38.47
2022-09-18T16:18:48.155Z,38.76
2022-09-18T16:21:14.611Z,38.54
2022-09-18T16:23:44.524Z,38.67
2022-09-18T16:26:15.426Z,38.82
2022-09-18T16:28:46.025Z,39.09
2022-09-18T16:31:13.337Z,38.63
2022-09-18T16:33:48.608Z,39.18
2022-09-18T16:36:34.338Z,39.43
2022-09-18T16:39:01.593Z,39.28
2022-09-18T16:41:28.697Z,40.15
2022-09-18T16:43:55.748Z,40.43
2022-09-18T16:46:23.945Z,40.89
2022-09-18T16:48:51.115Z,40.90
2022-09-18T16:51:17.599Z,41.32
2022-09-18T16:53:44.161Z,41.46
2022-09-18T16:56:12.266Z,41.78
2022-09-18T16:58:39.229Z,41.96
2022-09-18T17:01:05.793Z,42.30
2022-09-18T17:03:32.658Z,43.00
2022-09-18T17:05:59.579Z,42.71
2022-09-18T17:08:25.969Z,42.93
2022-09-18T17:10:52.495Z,43.06
2022-09-18T17:13:19.428Z,43.03
2022-09-18T17:15:45.880Z,43.20
2022-09-18T17:18:12.365Z,43.06
2022-09-18T17:20:38.801Z,43.17
2022-09-18T17:23:05.341Z,43.27
2022-09-18T17:25:31.979Z,43.38
2022-09-18T17:27:58.414Z,43.36
2022-09-18T17:30:25.625Z,43.41
2022-09-18T17:32:52.062Z,43.82
2022-09-18T17:35:18.789Z,44.12
2022-09-18T17:37:45.291Z,44.31
2022-09-18T17:40:11.796Z,44.99
2022-09-18T17:42:38.327Z,44.67
2022-09-18T17:45:05.102Z,44.80
2022-09-18T17:47:31.957Z,44.86
2022-09-18T17:49:58.617Z,45.08
2022-09-18T17:52:25.124Z,45.02
2022-09-18T17:54:51.618Z,45.19
2022-09-18T17:57:18.088Z,45.27
2022-09-18T17:59:44.608Z,45.73
2022-09-18T18:02:11.496Z,45.77
2022-09-18T18:04:38.204Z,45.52
2022-09-18T18:07:04.948Z,45.71
2022-09-18T18:09:31.375Z,45.61
2022-09-18T18:11:57.828Z,45.68
2022-09-18T18:14:29.122Z,45.58
2022-09-18T18:16:55.511Z,45.43
2022-09-18T18:19:22.025Z,45.31
2022-09-18T18:25:12.290Z,44.97
2022-09-18T18:27:38.734Z,44.98
2022-09-18T18:30:06.863Z,45.17
2022-09-18T18:32:34.885Z,45.02
2022-09-18T18:35:01.532Z,44.66
2022-09-18T18:37:27.943Z,44.72
2022-09-18T18:39:54.441Z,44.63
2022-09-18T18:42:23.562Z,44.99
2022-09-18T18:44:50.151Z,44.75
2022-09-18T18:47:20.287Z,44.75
2022-09-18T18:49:46.894Z,44.77
2022-09-18T18:52:13.441Z,44.84
2022-09-18T18:54:40.001Z,45.84
2022-09-18T18:57:06.504Z,45.74
2022-09-18T18:59:33.326Z,46.29
2022-09-18T19:02:00.009Z,46.15
2022-09-18T19:04:26.602Z,46.20
2022-09-18T19:06:55.786Z,46.47
2022-09-18T19:09:24.384Z,46.19
2022-09-18T19:11:51.776Z,46.17
2022-09-18T19:14:24.626Z,46.39
2022-09-18T19:16:51.186Z,46.82
2022-09-18T19:19:18.218Z,46.97
2022-09-18T19:21:44.681Z,46.41
2022-09-18T19:24:11.249Z,46.33
2022-09-18T19:26:38.199Z,46.46
2022-09-18T19:29:06.925Z,46.01
2022-09-18T19:31:33.779Z,45.85
2022-09-18T19:34:00.472Z,45.84
2022-09-18T19:36:27.744Z,45.54
2022-09-18T19:38:54.964Z,45.79
2022-09-18T19:41:25.533Z,45.52
2022-09-18T19:43:51.998Z,45.60
2022-09-18T19:46:28.288Z,45.57
2022-09-18T19:48:54.723Z,45.26
2022-09-18T19:51:21.191Z,45.11
2022-09-18T19:53:47.600Z,45.33
2022-09-18T19:56:32.984Z,45.54
2022-09-18T19:59:00.632Z,45.93
2022-09-18T20:01:27.038Z,45.66
2022-09-18T20:03:53.679Z,45.90
2022-09-18T20:06:20.231Z,45.70
2022-09-18T20:08:46.690Z,46.07
2022-09-18T20:11:13.147Z,45.99
2022-09-18T20:13:39.602Z,46.10
2022-09-18T20:16:07.002Z,46.29
2022-09-18T20:18:33.560Z,46.19
2022-09-18T20:21:04.084Z,46.32
2022-09-18T20:23:30.689Z,46.48
2022-09-18T20:25:57.108Z,46.74
2022-09-18T20:28:23.597Z,46.46
2022-09-18T20:30:50.071Z,46.50
2022-09-18T20:33:16.797Z,46.49
2022-09-18T20:35:47.912Z,46.36
2022-09-18T20:38:14.359Z,46.17
2022-09-18T20:40:42.233Z,46.49
2022-09-18T20:43:08.808Z,46.43
2022-09-18T20:45:35.938Z,46.37
2022-09-18T20:48:04.134Z,46.30
2022-09-18T20:50:30.558Z,46.53
2022-09-18T20:53:08.282Z,46.28
2022-09-18T20:55:36.217Z,46.16
2022-09-18T20:58:05.766Z,46.00
2022-09-18T21:00:32.505Z,46.05
2022-09-18T21:02:59.375Z,45.89
2022-09-18T21:05:27.209Z,45.38
2022-09-18T21:07:57.392Z,45.41
2022-09-18T21:10:24.270Z,45.38
2022-09-18T21:12:50.687Z,45.24
2022-09-18T21:15:17.338Z,45.37
2022-09-18T21:17:43.858Z,45.09
2022-09-18T21:20:10.259Z,45.46
2022-09-18T21:22:56.626Z,45.10
2022-09-18T21:25:24.732Z,45.81
2022-09-18T21:27:54.897Z,45.96
2022-09-18T21:30:22.295Z,45.41
2022-09-18T21:32:50.823Z,44.72
2022-09-18T21:35:20.172Z,44.51
2022-09-18T21:37:46.844Z,44.46
2022-09-18T21:40:13.611Z,44.27
2022-09-18T21:42:42.715Z,44.25
2022-09-18T21:45:09.289Z,43.77
2022-09-18T21:47:36.259Z,43.83
2022-09-18T21:50:03.015Z,43.47
2022-09-18T21:52:31.999Z,43.65
2022-09-18T21:54:58.464Z,43.50
2022-09-18T21:57:24.852Z,43.70
2022-09-18T21:59:51.238Z,43.41
2022-09-18T22:02:20.549Z,44.05
2022-09-18T22:04:46.982Z,43.39
2022-09-18T22:07:13.499Z,43.82
2022-09-18T22:09:39.971Z,43.74
2022-09-18T22:12:06.647Z,43.52
2022-09-18T22:14:33.350Z,43.89
2022-09-18T22:17:00.318Z,43.47
2022-09-18T22:19:26.849Z,43.63
2022-09-18T22:21:53.247Z,43.71
2022-09-18T22:24:20.925Z,43.90
2022-09-18T22:27:03.099Z,43.07
2022-09-18T22:29:30.402Z,43.06
2022-09-18T22:31:56.961Z,43.54
2022-09-18T22:34:24.265Z,42.69
2022-09-18T22:36:50.654Z,42.29
2022-09-18T22:39:17.343Z,42.94
2022-09-18T22:41:43.763Z,42.66
2022-09-18T22:44:10.466Z,41.86
2022-09-18T22:46:37.341Z,41.88
2022-09-18T22:49:04.091Z,41.50
2022-09-18T22:51:30.490Z,41.89
2022-09-18T22:53:58.118Z,41.70
2022-09-18T22:56:25.492Z,42.08
2022-09-18T22:58:52.174Z,42.33
2022-09-18T23:01:22.533Z,41.62
2022-09-18T23:03:49.311Z,41.39
2022-09-18T23:06:16.134Z,42.28
2022-09-18T23:08:42.942Z,41.67
2022-09-18T23:11:13.799Z,41.88
2022-09-18T23:13:40.861Z,41.85
2022-09-18T23:16:11.221Z,42.21
2022-09-18T23:18:40.590Z,42.66
2022-09-18T23:21:07.814Z,42.71
2022-09-18T23:23:34.972Z,42.34
2022-09-18T23:26:11.639Z,43.10
2022-09-18T23:28:38.941Z,43.52
2022-09-18T23:31:10.277Z,43.65
2022-09-18T23:33:37.148Z,42.76
2022-09-18T23:36:07.634Z,43.69
2022-09-18T23:38:34.072Z,43.48
2022-09-18T23:41:01.763Z,43.59
2022-09-18T23:43:28.480Z,43.73
2022-09-18T23:45:55.158Z,43.54
2022-09-18T23:48:21.547Z,43.65
2022-09-18T23:50:48.542Z,44.23
2022-09-18T23:53:14.966Z,44.05
2022-09-18T23:55:41.368Z,43.99
2022-09-18T23:58:08.379Z,44.73
